sensor_id;sensor_type;location;lat;lon;timestamp;P1;durP1;ratioP1;P2;durP2;ratioP2
56037;SDS011;41907;47.848;9.000;2022-12-28T00:01:09;24.15;;;12.57;;
56037;SDS011;41907;47.848;9.000;2022-12-28T00:03:35;24.10;;;12.82;;
56037;SDS011;41907;47.848;9.000;2022-12-28T00:06:01;27.92;;;12.68;;
56037;SDS011;41907;47.848;9.000;2022-12-28T00:08:27;25.58;;;12.65;;
56037;SDS011;41907;47.848;9.000;2022-12-28T00:10:52;24.02;;;13.20;;
56037;SDS011;41907;47.848;9.000;2022-12-28T00:13:19;25.70;;;12.18;;
56037;SDS011;41907;47.848;9.000;2022-12-28T00:15:45;20.77;;;12.30;;
56037;SDS011;41907;47.848;9.000;2022-12-28T00:18:10;27.38;;;12.95;;
56037;SDS011;41907;47.848;9.000;2022-12-28T00:20:35;21.50;;;12.57;;
56037;SDS011;41907;47.848;9.000;2022-12-28T00:23:03;26.73;;;14.23;;
56037;SDS011;41907;47.848;9.000;2022-12-28T00:25:30;28.35;;;12.77;;
56037;SDS011;41907;47.848;9.000;2022-12-28T00:27:55;28.70;;;14.27;;
56037;SDS011;41907;47.848;9.000;2022-12-28T00:30:20;27.58;;;14.25;;
56037;SDS011;41907;47.848;9.000;2022-12-28T00:32:46;29.88;;;14.57;;
56037;SDS011;41907;47.848;9.000;2022-12-28T00:35:11;27.52;;;13.40;;
56037;SDS011;41907;47.848;9.000;2022-12-28T00:37:36;26.55;;;13.77;;
56037;SDS011;41907;47.848;9.000;2022-12-28T00:40:01;25.40;;;12.20;;
56037;SDS011;41907;47.848;9.000;2022-12-28T00:42:27;25.58;;;12.73;;
56037;SDS011;41907;47.848;9.000;2022-12-28T00:44:52;23.67;;;12.48;;
56037;SDS011;41907;47.848;9.000;2022-12-28T00:47:18;22.20;;;12.73;;
56037;SDS011;41907;47.848;9.000;2022-12-28T00:49:43;23.10;;;12.10;;
56037;SDS011;41907;47.848;9.000;2022-12-28T00:52:08;22.30;;;11.90;;
56037;SDS011;41907;47.848;9.000;2022-12-28T00:54:34;23.77;;;11.40;;
56037;SDS011;41907;47.848;9.000;2022-12-28T00:56:59;23.70;;;12.15;;
56037;SDS011;41907;47.848;9.000;2022-12-28T00:59:24;23.33;;;11.70;;
56037;SDS011;41907;47.848;9.000;2022-12-28T01:01:50;25.05;;;12.63;;
56037;SDS011;41907;47.848;9.000;2022-12-28T01:04:15;20.95;;;10.95;;
56037;SDS011;41907;47.848;9.000;2022-12-28T01:06:41;20.83;;;10.85;;
56037;SDS011;41907;47.848;9.000;2022-12-28T01:09:06;22.38;;;11.27;;
56037;SDS011;41907;47.848;9.000;2022-12-28T01:11:31;21.88;;;12.07;;
56037;SDS011;41907;47.848;9.000;2022-12-28T01:13:58;27.33;;;13.20;;
56037;SDS011;41907;47.848;9.000;2022-12-28T01:16:26;24.60;;;13.02;;
56037;SDS011;41907;47.848;9.000;2022-12-28T01:18:54;25.02;;;12.82;;
56037;SDS011;41907;47.848;9.000;2022-12-28T01:21:22;23.10;;;13.35;;
56037;SDS011;41907;47.848;9.000;2022-12-28T01:23:51;22.88;;;12.25;;
56037;SDS011;41907;47.848;9.000;2022-12-28T01:26:19;23.63;;;12.63;;
56037;SDS011;41907;47.848;9.000;2022-12-28T01:28:45;21.08;;;12.02;;
56037;SDS011;41907;47.848;9.000;2022-12-28T01:31:11;22.33;;;12.48;;
56037;SDS011;41907;47.848;9.000;2022-12-28T01:33:38;25.63;;;12.95;;
56037;SDS011;41907;47.848;9.000;2022-12-28T01:36:14;22.23;;;11.65;;
56037;SDS011;41907;47.848;9.000;2022-12-28T01:38:41;24.20;;;12.52;;
56037;SDS011;41907;47.848;9.000;2022-12-28T01:41:08;21.90;;;11.90;;
56037;SDS011;41907;47.848;9.000;2022-12-28T01:46:04;23.38;;;13.65;;
56037;SDS011;41907;47.848;9.000;2022-12-28T01:48:30;22.67;;;12.65;;
56037;SDS011;41907;47.848;9.000;2022-12-28T01:50:56;25.40;;;12.93;;
56037;SDS011;41907;47.848;9.000;2022-12-28T01:53:22;19.50;;;10.48;;
56037;SDS011;41907;47.848;9.000;2022-12-28T01:55:48;20.42;;;10.95;;
56037;SDS011;41907;47.848;9.000;2022-12-28T01:58:14;17.25;;;9.82;;
56037;SDS011;41907;47.848;9.000;2022-12-28T02:00:47;18.27;;;10.32;;
56037;SDS011;41907;47.848;9.000;2022-12-28T02:03:23;21.27;;;9.35;;
56037;SDS011;41907;47.848;9.000;2022-12-28T02:05:52;13.45;;;7.63;;
56037;SDS011;41907;47.848;9.000;2022-12-28T02:08:25;13.48;;;8.13;;
56037;SDS011;41907;47.848;9.000;2022-12-28T02:10:56;14.80;;;7.80;;
56037;SDS011;41907;47.848;9.000;2022-12-28T02:13:22;16.38;;;8.35;;
56037;SDS011;41907;47.848;9.000;2022-12-28T02:15:49;12.35;;;7.68;;
56037;SDS011;41907;47.848;9.000;2022-12-28T02:18:15;13.82;;;8.60;;
56037;SDS011;41907;47.848;9.000;2022-12-28T02:21:07;16.55;;;8.57;;
56037;SDS011;41907;47.848;9.000;2022-12-28T02:29:59;10.50;;;6.32;;
56037;SDS011;41907;47.848;9.000;2022-12-28T02:32:37;13.60;;;7.03;;
56037;SDS011;41907;47.848;9.000;2022-12-28T02:35:16;13.57;;;7.03;;
56037;SDS011;41907;47.848;9.000;2022-12-28T02:38:12;13.35;;;7.28;;
56037;SDS011;41907;47.848;9.000;2022-12-28T02:40:46;13.25;;;7.20;;
56037;SDS011;41907;47.848;9.000;2022-12-28T02:43:15;13.43;;;7.60;;
56037;SDS011;41907;47.848;9.000;2022-12-28T02:45:45;17.48;;;8.77;;
56037;SDS011;41907;47.848;9.000;2022-12-28T02:48:38;16.15;;;7.47;;
56037;SDS011;41907;47.848;9.000;2022-12-28T03:00:11;13.40;;;6.05;;
56037;SDS011;41907;47.848;9.000;2022-12-28T03:11:18;8.73;;;5.45;;
56037;SDS011;41907;47.848;9.000;2022-12-28T03:13:58;9.20;;;5.43;;
56037;SDS011;41907;47.848;9.000;2022-12-28T03:16:29;10.68;;;5.53;;
56037;SDS011;41907;47.848;9.000;2022-12-28T03:19:18;9.80;;;5.45;;
56037;SDS011;41907;47.848;9.000;2022-12-28T03:22:05;11.70;;;7.13;;
56037;SDS011;41907;47.848;9.000;2022-12-28T03:24:52;13.95;;;8.18;;
56037;SDS011;41907;47.848;9.000;2022-12-28T03:27:36;14.10;;;7.57;;
56037;SDS011;41907;47.848;9.000;2022-12-28T03:30:21;15.40;;;8.15;;
56037;SDS011;41907;47.848;9.000;2022-12-28T03:33:05;12.75;;;7.55;;
56037;SDS011;41907;47.848;9.000;2022-12-28T03:35:36;12.07;;;7.13;;
56037;SDS011;41907;47.848;9.000;2022-12-28T03:38:09;15.07;;;7.70;;
56037;SDS011;41907;47.848;9.000;2022-12-28T03:40:49;16.08;;;7.65;;
56037;SDS011;41907;47.848;9.000;2022-12-28T03:43:21;13.32;;;7.55;;
56037;SDS011;41907;47.848;9.000;2022-12-28T03:46:41;12.27;;;7.35;;
56037;SDS011;41907;47.848;9.000;2022-12-28T03:49:07;13.65;;;7.45;;
56037;SDS011;41907;47.848;9.000;2022-12-28T03:51:33;13.32;;;7.80;;
56037;SDS011;41907;47.848;9.000;2022-12-28T03:53:59;12.73;;;6.72;;
56037;SDS011;41907;47.848;9.000;2022-12-28T03:56:26;13.05;;;6.78;;
56037;SDS011;41907;47.848;9.000;2022-12-28T03:58:52;10.50;;;6.18;;
56037;SDS011;41907;47.848;9.000;2022-12-28T04:01:18;13.25;;;5.97;;
56037;SDS011;41907;47.848;9.000;2022-12-28T04:03:44;8.80;;;5.35;;
56037;SDS011;41907;47.848;9.000;2022-12-28T04:06:13;9.05;;;5.70;;
56037;SDS011;41907;47.848;9.000;2022-12-28T04:08:41;11.90;;;6.30;;
56037;SDS011;41907;47.848;9.000;2022-12-28T04:11:07;15.57;;;6.97;;
56037;SDS011;41907;47.848;9.000;2022-12-28T04:13:33;17.10;;;8.65;;
56037;SDS011;41907;47.848;9.000;2022-12-28T04:16:04;12.23;;;6.30;;
56037;SDS011;41907;47.848;9.000;2022-12-28T04:18:31;14.65;;;6.45;;
56037;SDS011;41907;47.848;9.000;2022-12-28T04:20:57;14.77;;;7.00;;
56037;SDS011;41907;47.848;9.000;2022-12-28T04:23:23;11.32;;;6.68;;
56037;SDS011;41907;47.848;9.000;2022-12-28T04:25:59;11.82;;;5.70;;
56037;SDS011;41907;47.848;9.000;2022-12-28T04:28:26;10.52;;;6.43;;
56037;SDS011;41907;47.848;9.000;2022-12-28T04:30:52;11.90;;;5.88;;
56037;SDS011;41907;47.848;9.000;2022-12-28T04:33:17;15.73;;;6.75;;
56037;SDS011;41907;47.848;9.000;2022-12-28T04:35:43;22.05;;;8.32;;
56037;SDS011;41907;47.848;9.000;2022-12-28T04:38:08;22.15;;;8.50;;
56037;SDS011;41907;47.848;9.000;2022-12-28T04:40:33;23.02;;;8.13;;
56037;SDS011;41907;47.848;9.000;2022-12-28T04:42:59;35.25;;;10.13;;
56037;SDS011;41907;47.848;9.000;2022-12-28T04:45:24;22.77;;;8.75;;
56037;SDS011;41907;47.848;9.000;2022-12-28T04:47:49;24.13;;;8.50;;
56037;SDS011;41907;47.848;9.000;2022-12-28T04:50:15;24.88;;;9.07;;
56037;SDS011;41907;47.848;9.000;2022-12-28T04:52:40;27.48;;;9.13;;
56037;SDS011;41907;47.848;9.000;2022-12-28T04:55:06;33.63;;;10.70;;
56037;SDS011;41907;47.848;9.000;2022-12-28T04:57:31;31.20;;;10.18;;
56037;SDS011;41907;47.848;9.000;2022-12-28T04:59:56;25.80;;;10.45;;
56037;SDS011;41907;47.848;9.000;2022-12-28T05:02:22;33.05;;;10.70;;
56037;SDS011;41907;47.848;9.000;2022-12-28T05:04:47;29.10;;;11.52;;
56037;SDS011;41907;47.848;9.000;2022-12-28T05:07:12;27.80;;;10.00;;
56037;SDS011;41907;47.848;9.000;2022-12-28T05:09:38;33.65;;;11.32;;
56037;SDS011;41907;47.848;9.000;2022-12-28T05:12:03;36.30;;;11.63;;
56037;SDS011;41907;47.848;9.000;2022-12-28T05:14:29;36.88;;;11.52;;
56037;SDS011;41907;47.848;9.000;2022-12-28T05:16:54;32.78;;;10.98;;
56037;SDS011;41907;47.848;9.000;2022-12-28T05:19:19;30.55;;;11.85;;
56037;SDS011;41907;47.848;9.000;2022-12-28T05:21:44;35.45;;;12.23;;
56037;SDS011;41907;47.848;9.000;2022-12-28T05:24:10;37.58;;;12.10;;
56037;SDS011;41907;47.848;9.000;2022-12-28T05:26:35;32.40;;;13.02;;
56037;SDS011;41907;47.848;9.000;2022-12-28T05:29:01;31.60;;;12.10;;
56037;SDS011;41907;47.848;9.000;2022-12-28T05:31:26;33.58;;;11.48;;
56037;SDS011;41907;47.848;9.000;2022-12-28T05:33:52;35.85;;;13.70;;
56037;SDS011;41907;47.848;9.000;2022-12-28T05:36:19;34.05;;;12.65;;
56037;SDS011;41907;47.848;9.000;2022-12-28T05:38:48;38.88;;;12.20;;
56037;SDS011;41907;47.848;9.000;2022-12-28T05:43:41;36.60;;;13.18;;
56037;SDS011;41907;47.848;9.000;2022-12-28T05:46:19;30.67;;;12.73;;
56037;SDS011;41907;47.848;9.000;2022-12-28T05:48:48;34.35;;;12.43;;
56037;SDS011;41907;47.848;9.000;2022-12-28T05:51:15;33.65;;;11.50;;
56037;SDS011;41907;47.848;9.000;2022-12-28T05:53:42;37.67;;;13.05;;
56037;SDS011;41907;47.848;9.000;2022-12-28T05:56:09;30.33;;;12.55;;
56037;SDS011;41907;47.848;9.000;2022-12-28T05:58:36;32.25;;;12.88;;
56037;SDS011;41907;47.848;9.000;2022-12-28T06:01:09;34.80;;;14.52;;
56037;SDS011;41907;47.848;9.000;2022-12-28T06:03:37;38.80;;;15.77;;
56037;SDS011;41907;47.848;9.000;2022-12-28T06:06:10;43.55;;;19.02;;
56037;SDS011;41907;47.848;9.000;2022-12-28T06:08:37;49.60;;;18.83;;
56037;SDS011;41907;47.848;9.000;2022-12-28T06:11:05;36.78;;;13.98;;
56037;SDS011;41907;47.848;9.000;2022-12-28T06:13:32;36.03;;;12.27;;
56037;SDS011;41907;47.848;9.000;2022-12-28T06:15:58;35.55;;;12.32;;
56037;SDS011;41907;47.848;9.000;2022-12-28T06:18:28;38.75;;;12.55;;
56037;SDS011;41907;47.848;9.000;2022-12-28T06:20:53;26.27;;;10.93;;
56037;SDS011;41907;47.848;9.000;2022-12-28T06:23:19;39.22;;;11.93;;
56037;SDS011;41907;47.848;9.000;2022-12-28T06:25:44;32.15;;;11.57;;
56037;SDS011;41907;47.848;9.000;2022-12-28T06:28:09;30.13;;;11.95;;
56037;SDS011;41907;47.848;9.000;2022-12-28T06:30:35;30.20;;;12.73;;
56037;SDS011;41907;47.848;9.000;2022-12-28T06:33:00;35.55;;;13.65;;
56037;SDS011;41907;47.848;9.000;2022-12-28T06:35:25;31.65;;;11.25;;
56037;SDS011;41907;47.848;9.000;2022-12-28T06:37:51;28.25;;;11.23;;
56037;SDS011;41907;47.848;9.000;2022-12-28T06:40:16;30.60;;;12.43;;
56037;SDS011;41907;47.848;9.000;2022-12-28T06:42:41;29.67;;;13.10;;
56037;SDS011;41907;47.848;9.000;2022-12-28T06:45:07;24.83;;;11.38;;
56037;SDS011;41907;47.848;9.000;2022-12-28T06:47:33;29.88;;;12.30;;
56037;SDS011;41907;47.848;9.000;2022-12-28T06:50:00;32.85;;;15.15;;
56037;SDS011;41907;47.848;9.000;2022-12-28T06:52:26;31.20;;;13.00;;
56037;SDS011;41907;47.848;9.000;2022-12-28T06:54:51;31.58;;;14.55;;
56037;SDS011;41907;47.848;9.000;2022-12-28T06:57:17;28.55;;;12.88;;
56037;SDS011;41907;47.848;9.000;2022-12-28T06:59:42;34.67;;;12.57;;
56037;SDS011;41907;47.848;9.000;2022-12-28T07:02:08;27.45;;;12.88;;
56037;SDS011;41907;47.848;9.000;2022-12-28T07:04:33;27.25;;;12.55;;
56037;SDS011;41907;47.848;9.000;2022-12-28T07:06:59;40.53;;;18.73;;
56037;SDS011;41907;47.848;9.000;2022-12-28T07:09:24;35.38;;;18.08;;
56037;SDS011;41907;47.848;9.000;2022-12-28T07:11:49;36.03;;;15.52;;
56037;SDS011;41907;47.848;9.000;2022-12-28T07:14:15;32.15;;;14.75;;
56037;SDS011;41907;47.848;9.000;2022-12-28T07:16:41;29.08;;;13.40;;
56037;SDS011;41907;47.848;9.000;2022-12-28T07:19:06;29.02;;;12.82;;
56037;SDS011;41907;47.848;9.000;2022-12-28T07:21:33;33.15;;;13.00;;
56037;SDS011;41907;47.848;9.000;2022-12-28T07:24:00;35.45;;;13.27;;
56037;SDS011;41907;47.848;9.000;2022-12-28T07:26:27;31.60;;;13.52;;
56037;SDS011;41907;47.848;9.000;2022-12-28T07:28:55;26.27;;;13.05;;
56037;SDS011;41907;47.848;9.000;2022-12-28T07:31:22;27.38;;;12.38;;
56037;SDS011;41907;47.848;9.000;2022-12-28T07:33:53;28.10;;;11.30;;
56037;SDS011;41907;47.848;9.000;2022-12-28T07:36:21;23.88;;;9.80;;
56037;SDS011;41907;47.848;9.000;2022-12-28T07:38:47;35.08;;;11.60;;
56037;SDS011;41907;47.848;9.000;2022-12-28T07:41:14;30.92;;;11.23;;
56037;SDS011;41907;47.848;9.000;2022-12-28T07:43:44;31.48;;;14.90;;
56037;SDS011;41907;47.848;9.000;2022-12-28T07:46:12;24.77;;;11.43;;
56037;SDS011;41907;47.848;9.000;2022-12-28T07:48:39;27.83;;;9.73;;
56037;SDS011;41907;47.848;9.000;2022-12-28T07:53:34;19.85;;;9.75;;
56037;SDS011;41907;47.848;9.000;2022-12-28T07:56:00;29.50;;;10.63;;
56037;SDS011;41907;47.848;9.000;2022-12-28T07:58:26;30.50;;;9.50;;
56037;SDS011;41907;47.848;9.000;2022-12-28T08:00:52;28.08;;;12.68;;
56037;SDS011;41907;47.848;9.000;2022-12-28T08:03:17;28.25;;;8.13;;
56037;SDS011;41907;47.848;9.000;2022-12-28T08:05:43;20.30;;;8.10;;
56037;SDS011;41907;47.848;9.000;2022-12-28T08:08:09;21.38;;;7.93;;
56037;SDS011;41907;47.848;9.000;2022-12-28T08:10:34;22.92;;;7.93;;
56037;SDS011;41907;47.848;9.000;2022-12-28T08:12:59;14.07;;;7.70;;
56037;SDS011;41907;47.848;9.000;2022-12-28T08:15:25;14.35;;;7.40;;
56037;SDS011;41907;47.848;9.000;2022-12-28T08:17:52;15.65;;;8.10;;
56037;SDS011;41907;47.848;9.000;2022-12-28T08:20:18;17.52;;;8.93;;
56037;SDS011;41907;47.848;9.000;2022-12-28T08:22:44;33.95;;;9.93;;
56037;SDS011;41907;47.848;9.000;2022-12-28T08:25:09;26.85;;;10.32;;
56037;SDS011;41907;47.848;9.000;2022-12-28T08:27:35;29.63;;;10.07;;
56037;SDS011;41907;47.848;9.000;2022-12-28T08:30:00;35.08;;;13.65;;
56037;SDS011;41907;47.848;9.000;2022-12-28T08:32:25;42.15;;;15.38;;
56037;SDS011;41907;47.848;9.000;2022-12-28T08:34:51;27.92;;;10.15;;
56037;SDS011;41907;47.848;9.000;2022-12-28T08:37:16;28.50;;;9.73;;
56037;SDS011;41907;47.848;9.000;2022-12-28T08:39:41;20.27;;;10.18;;
56037;SDS011;41907;47.848;9.000;2022-12-28T08:42:07;26.98;;;13.60;;
56037;SDS011;41907;47.848;9.000;2022-12-28T08:44:32;21.42;;;10.57;;
56037;SDS011;41907;47.848;9.000;2022-12-28T08:46:58;17.95;;;10.55;;
56037;SDS011;41907;47.848;9.000;2022-12-28T08:49:23;15.38;;;8.70;;
56037;SDS011;41907;47.848;9.000;2022-12-28T08:51:48;22.40;;;13.05;;
56037;SDS011;41907;47.848;9.000;2022-12-28T08:54:14;16.98;;;9.45;;
56037;SDS011;41907;47.848;9.000;2022-12-28T08:56:40;21.02;;;10.68;;
56037;SDS011;41907;47.848;9.000;2022-12-28T08:59:07;17.80;;;9.93;;
56037;SDS011;41907;47.848;9.000;2022-12-28T09:01:37;17.13;;;9.43;;
56037;SDS011;41907;47.848;9.000;2022-12-28T09:04:03;19.65;;;10.52;;
56037;SDS011;41907;47.848;9.000;2022-12-28T09:06:30;59.25;;;27.40;;
56037;SDS011;41907;47.848;9.000;2022-12-28T09:08:57;22.48;;;11.98;;
56037;SDS011;41907;47.848;9.000;2022-12-28T09:11:24;19.08;;;10.68;;
56037;SDS011;41907;47.848;9.000;2022-12-28T09:13:50;19.48;;;8.45;;
56037;SDS011;41907;47.848;9.000;2022-12-28T09:16:16;20.92;;;9.93;;
56037;SDS011;41907;47.848;9.000;2022-12-28T09:18:44;30.00;;;9.43;;
56037;SDS011;41907;47.848;9.000;2022-12-28T09:21:14;17.77;;;9.73;;
56037;SDS011;41907;47.848;9.000;2022-12-28T09:23:41;20.70;;;10.25;;
56037;SDS011;41907;47.848;9.000;2022-12-28T09:26:09;17.80;;;9.48;;
56037;SDS011;41907;47.848;9.000;2022-12-28T09:28:36;20.45;;;10.88;;
56037;SDS011;41907;47.848;9.000;2022-12-28T09:31:06;20.02;;;10.45;;
56037;SDS011;41907;47.848;9.000;2022-12-28T09:33:33;28.38;;;11.95;;
56037;SDS011;41907;47.848;9.000;2022-12-28T09:36:18;25.17;;;11.05;;
56037;SDS011;41907;47.848;9.000;2022-12-28T09:38:47;23.85;;;10.60;;
56037;SDS011;41907;47.848;9.000;2022-12-28T09:41:28;23.88;;;11.40;;
56037;SDS011;41907;47.848;9.000;2022-12-28T09:46:42;60.03;;;36.80;;
56037;SDS011;41907;47.848;9.000;2022-12-28T09:49:24;23.20;;;12.57;;
56037;SDS011;41907;47.848;9.000;2022-12-28T09:51:56;19.92;;;10.98;;
56037;SDS011;41907;47.848;9.000;2022-12-28T09:54:43;25.30;;;14.13;;
56037;SDS011;41907;47.848;9.000;2022-12-28T09:57:11;26.95;;;13.70;;
56037;SDS011;41907;47.848;9.000;2022-12-28T09:59:39;24.52;;;13.50;;
56037;SDS011;41907;47.848;9.000;2022-12-28T10:02:08;23.05;;;12.32;;
56037;SDS011;41907;47.848;9.000;2022-12-28T10:04:42;27.75;;;14.77;;
56037;SDS011;41907;47.848;9.000;2022-12-28T10:07:08;25.08;;;14.27;;
56037;SDS011;41907;47.848;9.000;2022-12-28T10:09:35;19.80;;;11.13;;
56037;SDS011;41907;47.848;9.000;2022-12-28T10:12:05;16.30;;;9.88;;
56037;SDS011;41907;47.848;9.000;2022-12-28T10:14:37;16.42;;;10.15;;
56037;SDS011;41907;47.848;9.000;2022-12-28T10:17:03;11.80;;;8.00;;
56037;SDS011;41907;47.848;9.000;2022-12-28T10:19:31;14.32;;;9.20;;
56037;SDS011;41907;47.848;9.000;2022-12-28T10:22:00;17.85;;;10.50;;
56037;SDS011;41907;47.848;9.000;2022-12-28T10:24:28;20.08;;;11.07;;
56037;SDS011;41907;47.848;9.000;2022-12-28T10:26:55;16.17;;;8.50;;
56037;SDS011;41907;47.848;9.000;2022-12-28T10:29:22;13.93;;;8.75;;
56037;SDS011;41907;47.848;9.000;2022-12-28T10:32:02;15.80;;;10.82;;
56037;SDS011;41907;47.848;9.000;2022-12-28T10:34:29;15.48;;;10.07;;
56037;SDS011;41907;47.848;9.000;2022-12-28T10:36:55;15.05;;;9.00;;
56037;SDS011;41907;47.848;9.000;2022-12-28T10:39:29;16.00;;;9.63;;
56037;SDS011;41907;47.848;9.000;2022-12-28T10:41:56;20.40;;;10.80;;
56037;SDS011;41907;47.848;9.000;2022-12-28T10:44:33;18.30;;;11.77;;
56037;SDS011;41907;47.848;9.000;2022-12-28T10:47:00;21.10;;;11.63;;
56037;SDS011;41907;47.848;9.000;2022-12-28T10:49:30;28.38;;;18.73;;
56037;SDS011;41907;47.848;9.000;2022-12-28T10:54:31;19.70;;;10.77;;
56037;SDS011;41907;47.848;9.000;2022-12-28T10:56:58;15.20;;;9.48;;
56037;SDS011;41907;47.848;9.000;2022-12-28T10:59:25;15.73;;;8.98;;
56037;SDS011;41907;47.848;9.000;2022-12-28T11:01:53;13.52;;;8.95;;
56037;SDS011;41907;47.848;9.000;2022-12-28T11:04:23;14.85;;;8.98;;
56037;SDS011;41907;47.848;9.000;2022-12-28T11:06:56;14.82;;;9.40;;
56037;SDS011;41907;47.848;9.000;2022-12-28T11:09:28;12.18;;;7.72;;
56037;SDS011;41907;47.848;9.000;2022-12-28T11:11:55;12.88;;;8.00;;
56037;SDS011;41907;47.848;9.000;2022-12-28T11:14:51;8.48;;;6.75;;
56037;SDS011;41907;47.848;9.000;2022-12-28T11:17:18;7.70;;;6.07;;
56037;SDS011;41907;47.848;9.000;2022-12-28T11:19:46;9.00;;;6.30;;
56037;SDS011;41907;47.848;9.000;2022-12-28T11:22:16;8.27;;;5.80;;
56037;SDS011;41907;47.848;9.000;2022-12-28T11:24:46;8.60;;;5.78;;
56037;SDS011;41907;47.848;9.000;2022-12-28T11:27:12;8.57;;;6.00;;
56037;SDS011;41907;47.848;9.000;2022-12-28T11:29:42;13.95;;;7.18;;
56037;SDS011;41907;47.848;9.000;2022-12-28T11:32:14;6.70;;;4.25;;
56037;SDS011;41907;47.848;9.000;2022-12-28T11:34:46;5.38;;;3.90;;
56037;SDS011;41907;47.848;9.000;2022-12-28T11:37:13;8.27;;;4.35;;
56037;SDS011;41907;47.848;9.000;2022-12-28T11:39:46;6.32;;;4.38;;
56037;SDS011;41907;47.848;9.000;2022-12-28T11:44:56;6.28;;;4.00;;
56037;SDS011;41907;47.848;9.000;2022-12-28T11:47:28;5.57;;;2.90;;
56037;SDS011;41907;47.848;9.000;2022-12-28T11:53:21;6.00;;;2.97;;
56037;SDS011;41907;47.848;9.000;2022-12-28T11:56:08;5.40;;;4.05;;
56037;SDS011;41907;47.848;9.000;2022-12-28T12:01:48;4.75;;;3.42;;
56037;SDS011;41907;47.848;9.000;2022-12-28T12:09:11;6.03;;;3.60;;
56037;SDS011;41907;47.848;9.000;2022-12-28T12:14:17;5.45;;;3.67;;
56037;SDS011;41907;47.848;9.000;2022-12-28T12:16:52;6.40;;;4.30;;
56037;SDS011;41907;47.848;9.000;2022-12-28T12:19:30;5.47;;;4.30;;
56037;SDS011;41907;47.848;9.000;2022-12-28T12:22:00;5.30;;;3.30;;
56037;SDS011;41907;47.848;9.000;2022-12-28T12:27:26;4.93;;;3.35;;
56037;SDS011;41907;47.848;9.000;2022-12-28T12:30:04;4.97;;;3.15;;
56037;SDS011;41907;47.848;9.000;2022-12-28T12:32:40;5.78;;;3.83;;
56037;SDS011;41907;47.848;9.000;2022-12-28T12:35:13;4.82;;;3.38;;
56037;SDS011;41907;47.848;9.000;2022-12-28T12:45:26;5.93;;;4.13;;
56037;SDS011;41907;47.848;9.000;2022-12-28T13:01:57;5.53;;;3.60;;
56037;SDS011;41907;47.848;9.000;2022-12-28T13:04:32;4.25;;;2.90;;
56037;SDS011;41907;47.848;9.000;2022-12-28T13:06:59;5.93;;;3.50;;
56037;SDS011;41907;47.848;9.000;2022-12-28T13:09:29;3.50;;;2.90;;
56037;SDS011;41907;47.848;9.000;2022-12-28T13:11:56;3.53;;;3.00;;
56037;SDS011;41907;47.848;9.000;2022-12-28T13:14:23;4.13;;;2.95;;
56037;SDS011;41907;47.848;9.000;2022-12-28T13:16:51;3.75;;;2.60;;
56037;SDS011;41907;47.848;9.000;2022-12-28T13:19:19;5.80;;;3.28;;
56037;SDS011;41907;47.848;9.000;2022-12-28T13:21:48;7.80;;;3.25;;
56037;SDS011;41907;47.848;9.000;2022-12-28T13:24:21;4.35;;;3.40;;
56037;SDS011;41907;47.848;9.000;2022-12-28T13:26:48;6.38;;;3.30;;
56037;SDS011;41907;47.848;9.000;2022-12-28T13:29:16;6.13;;;3.47;;
56037;SDS011;41907;47.848;9.000;2022-12-28T13:31:44;6.45;;;3.97;;
56037;SDS011;41907;47.848;9.000;2022-12-28T13:39:28;6.35;;;4.13;;
56037;SDS011;41907;47.848;9.000;2022-12-28T13:41:58;8.52;;;4.38;;
56037;SDS011;41907;47.848;9.000;2022-12-28T13:44:31;6.65;;;3.95;;
56037;SDS011;41907;47.848;9.000;2022-12-28T13:49:42;6.72;;;3.92;;
56037;SDS011;41907;47.848;9.000;2022-12-28T13:52:15;6.00;;;3.83;;
56037;SDS011;41907;47.848;9.000;2022-12-28T13:54:47;7.80;;;3.88;;
56037;SDS011;41907;47.848;9.000;2022-12-28T13:57:17;6.90;;;3.40;;
56037;SDS011;41907;47.848;9.000;2022-12-28T13:59:44;7.75;;;3.78;;
56037;SDS011;41907;47.848;9.000;2022-12-28T14:02:14;6.03;;;3.92;;
56037;SDS011;41907;47.848;9.000;2022-12-28T14:04:43;6.15;;;3.90;;
56037;SDS011;41907;47.848;9.000;2022-12-28T14:07:13;5.25;;;3.35;;
56037;SDS011;41907;47.848;9.000;2022-12-28T14:09:41;5.15;;;3.75;;
56037;SDS011;41907;47.848;9.000;2022-12-28T14:12:08;5.28;;;3.45;;
56037;SDS011;41907;47.848;9.000;2022-12-28T14:14:35;6.20;;;3.80;;
56037;SDS011;41907;47.848;9.000;2022-12-28T14:17:02;5.43;;;3.08;;
56037;SDS011;41907;47.848;9.000;2022-12-28T14:19:27;3.90;;;2.72;;
56037;SDS011;41907;47.848;9.000;2022-12-28T14:21:53;7.30;;;2.92;;
56037;SDS011;41907;47.848;9.000;2022-12-28T14:24:18;3.60;;;2.80;;
56037;SDS011;41907;47.848;9.000;2022-12-28T14:26:48;5.55;;;3.15;;
56037;SDS011;41907;47.848;9.000;2022-12-28T14:29:20;3.72;;;2.78;;
56037;SDS011;41907;47.848;9.000;2022-12-28T14:31:57;4.43;;;3.20;;
56037;SDS011;41907;47.848;9.000;2022-12-28T14:34:38;3.97;;;2.95;;
56037;SDS011;41907;47.848;9.000;2022-12-28T14:37:03;4.15;;;2.92;;
56037;SDS011;41907;47.848;9.000;2022-12-28T14:39:30;4.53;;;2.90;;
56037;SDS011;41907;47.848;9.000;2022-12-28T14:42:02;5.00;;;3.10;;
56037;SDS011;41907;47.848;9.000;2022-12-28T14:44:30;6.30;;;3.25;;
56037;SDS011;41907;47.848;9.000;2022-12-28T14:46:58;6.10;;;2.90;;
56037;SDS011;41907;47.848;9.000;2022-12-28T14:51:52;5.25;;;3.17;;
56037;SDS011;41907;47.848;9.000;2022-12-28T14:54:23;7.15;;;3.05;;
56037;SDS011;41907;47.848;9.000;2022-12-28T14:56:54;5.53;;;3.17;;
56037;SDS011;41907;47.848;9.000;2022-12-28T14:59:32;6.28;;;3.58;;
56037;SDS011;41907;47.848;9.000;2022-12-28T15:02:02;5.75;;;3.50;;
56037;SDS011;41907;47.848;9.000;2022-12-28T15:04:35;7.07;;;3.67;;
56037;SDS011;41907;47.848;9.000;2022-12-28T15:07:05;4.93;;;3.42;;
56037;SDS011;41907;47.848;9.000;2022-12-28T15:09:32;4.55;;;3.05;;
56037;SDS011;41907;47.848;9.000;2022-12-28T15:12:15;4.70;;;3.42;;
56037;SDS011;41907;47.848;9.000;2022-12-28T15:14:44;3.97;;;3.05;;
56037;SDS011;41907;47.848;9.000;2022-12-28T15:17:10;4.97;;;3.10;;
56037;SDS011;41907;47.848;9.000;2022-12-28T15:19:36;5.65;;;3.20;;
56037;SDS011;41907;47.848;9.000;2022-12-28T15:22:02;4.80;;;3.08;;
56037;SDS011;41907;47.848;9.000;2022-12-28T15:24:28;4.38;;;2.90;;
56037;SDS011;41907;47.848;9.000;2022-12-28T15:26:53;4.65;;;3.13;;
56037;SDS011;41907;47.848;9.000;2022-12-28T15:29:19;5.82;;;3.22;;
56037;SDS011;41907;47.848;9.000;2022-12-28T15:31:45;7.60;;;3.65;;
56037;SDS011;41907;47.848;9.000;2022-12-28T15:34:10;4.28;;;3.25;;
56037;SDS011;41907;47.848;9.000;2022-12-28T15:36:36;5.90;;;3.70;;
56037;SDS011;41907;47.848;9.000;2022-12-28T15:39:01;5.25;;;3.58;;
56037;SDS011;41907;47.848;9.000;2022-12-28T15:41:27;4.35;;;2.97;;
56037;SDS011;41907;47.848;9.000;2022-12-28T15:44:14;5.40;;;3.78;;
56037;SDS011;41907;47.848;9.000;2022-12-28T15:46:44;5.13;;;3.85;;
56037;SDS011;41907;47.848;9.000;2022-12-28T15:49:11;7.10;;;3.72;;
56037;SDS011;41907;47.848;9.000;2022-12-28T15:51:38;5.90;;;3.97;;
56037;SDS011;41907;47.848;9.000;2022-12-28T15:54:04;4.80;;;3.10;;
56037;SDS011;41907;47.848;9.000;2022-12-28T15:56:32;4.47;;;3.33;;
56037;SDS011;41907;47.848;9.000;2022-12-28T15:59:01;4.28;;;3.38;;
56037;SDS011;41907;47.848;9.000;2022-12-28T16:01:29;7.30;;;3.67;;
56037;SDS011;41907;47.848;9.000;2022-12-28T16:03:56;4.72;;;3.08;;
56037;SDS011;41907;47.848;9.000;2022-12-28T16:06:23;3.72;;;2.75;;
56037;SDS011;41907;47.848;9.000;2022-12-28T16:08:56;4.63;;;3.28;;
56037;SDS011;41907;47.848;9.000;2022-12-28T16:11:24;6.05;;;3.25;;